Time;durP1;ratioP1;P1;durP2;ratioP2;P2;SDS_P1;SDS_P2;PMS_P1;PMS_P2;Temp;Humidity;BMP_temperature;BMP_pressure;BME280_temperature;BME280_humidity;BME280_pressure;Samples;Min_cycle;Max_cycle;Signal;HPM_P1;HPM_P2
2021/09/18 00:01:44;;;;;;;49.25;7.45;;;19.00;81.50;;;;;;5082398;28;20055;-61
2021/09/18 00:04:10;;;;;;;46.40;7.18;;;19.00;81.60;;;;;;5084776;28;20099;-61
2021/09/18 00:06:36;;;;;;;28.48;6.40;;;18.90;81.60;;;;;;5084873;28;20073;-62
2021/09/18 00:09:01;;;;;;;38.42;6.88;;;18.90;81.60;;;;;;5085506;28;20024;-62
2021/09/18 00:11:27;;;;;;;51.25;7.97;;;18.90;81.80;;;;;;5064764;28;20024;-62
2021/09/18 00:13:53;;;;;;;26.75;6.25;;;18.90;81.90;;;;;;5078619;28;20044;-61
2021/09/18 00:16:18;;;;;;;36.28;6.90;;;18.90;81.80;;;;;;5065661;28;20084;-61
2021/09/18 00:18:44;;;;;;;36.58;6.25;;;18.90;81.90;;;;;;5081480;28;20032;-62
2021/09/18 00:21:10;;;;;;;31.58;6.00;;;18.80;81.80;;;;;;5049055;28;20131;-61
2021/09/18 00:23:35;;;;;;;20.77;6.32;;;18.80;81.80;;;;;;5063544;28;20154;-61
2021/09/18 00:26:01;;;;;;;29.75;5.53;;;18.80;81.80;;;;;;5082683;28;20032;-62
2021/09/18 00:28:26;;;;;;;18.95;5.75;;;18.80;81.90;;;;;;5082767;28;20086;-62
2021/09/18 00:30:52;;;;;;;35.22;6.10;;;18.80;81.90;;;;;;5064913;28;20500;-61
2021/09/18 00:33:17;;;;;;;22.17;5.20;;;18.70;81.90;;;;;;5062399;28;20122;-61
2021/09/18 00:35:43;;;;;;;19.52;4.95;;;18.80;81.90;;;;;;5083281;28;20131;-61
2021/09/18 00:38:08;;;;;;;25.73;5.47;;;18.70;82.00;;;;;;5080557;28;20047;-61
2021/09/18 00:40:34;;;;;;;16.02;5.30;;;18.70;81.90;;;;;;5046367;28;20063;-61
2021/09/18 00:42:59;;;;;;;21.10;5.28;;;18.70;81.90;;;;;;5084221;28;20048;-61
2021/09/18 00:45:25;;;;;;;16.88;5.50;;;18.70;82.00;;;;;;5064953;28;20020;-61
2021/09/18 00:47:51;;;;;;;22.75;5.40;;;18.60;82.00;;;;;;5080035;28;20081;-61
2021/09/18 00:50:16;;;;;;;10.90;5.60;;;18.60;82.00;;;;;;5082339;28;20077;-62
2021/09/18 00:52:41;;;;;;;13.93;5.50;;;18.60;82.00;;;;;;5078930;28;20260;-62
2021/09/18 00:55:07;;;;;;;20.45;5.43;;;18.60;82.10;;;;;;5083348;28;20499;-61
2021/09/18 00:57:33;;;;;;;10.95;5.43;;;18.60;82.10;;;;;;5080028;28;20552;-62
2021/09/18 01:00:02;;;;;;;20.25;5.45;;;18.60;82.10;;;;;;5065137;28;20097;-61
2021/09/18 01:02:28;;;;;;;12.93;5.43;;;18.50;82.10;;;;;;5080808;28;20036;-62
2021/09/18 01:04:54;;;;;;;10.32;4.63;;;18.60;82.20;;;;;;5081622;28;20479;-61
2021/09/18 01:07:20;;;;;;;10.20;4.53;;;18.60;82.20;;;;;;5082437;28;20313;-62
2021/09/18 01:09:45;;;;;;;19.27;5.00;;;18.50;82.30;;;;;;5065710;28;20025;-61
2021/09/18 01:12:11;;;;;;;18.15;4.43;;;18.50;82.30;;;;;;5062799;28;20119;-61
2021/09/18 01:14:36;;;;;;;13.30;4.55;;;18.50;82.30;;;;;;5082685;28;20028;-61
2021/09/18 01:17:02;;;;;;;16.10;4.68;;;18.50;82.30;;;;;;5078682;28;20044;-61
2021/09/18 01:19:27;;;;;;;12.10;4.95;;;18.40;82.30;;;;;;5081595;28;20036;-62
2021/09/18 01:21:53;;;;;;;10.13;4.40;;;18.40;82.40;;;;;;5082035;28;20073;-61
2021/09/18 01:24:18;;;;;;;11.02;4.40;;;18.40;82.40;;;;;;5053288;28;20053;-61
2021/09/18 01:26:45;;;;;;;8.35;4.10;;;18.40;82.50;;;;;;5060868;28;20032;-61
2021/09/18 01:29:10;;;;;;;12.88;3.95;;;18.40;82.50;;;;;;5043808;28;20028;-62
2021/09/18 01:31:46;;;;;;;8.48;4.63;;;18.40;82.60;;;;;;5043410;28;20052;-61
2021/09/18 01:34:19;;;;;;;13.10;4.10;;;18.30;82.40;;;;;;5063893;28;20028;-62
2021/09/18 01:36:45;;;;;;;8.10;4.20;;;18.30;82.50;;;;;;5044210;28;20025;-62
2021/09/18 01:39:10;;;;;;;9.85;4.15;;;18.30;82.60;;;;;;5043986;28;20537;-61
2021/09/18 01:41:36;;;;;;;11.63;4.18;;;18.30;82.60;;;;;;5020294;28;20070;-61
2021/09/18 01:44:03;;;;;;;10.63;4.28;;;18.30;82.70;;;;;;5010187;28;20035;-61
2021/09/18 01:46:28;;;;;;;16.20;4.32;;;18.30;82.80;;;;;;5027647;28;20071;-62
2021/09/18 01:48:54;;;;;;;15.77;4.57;;;18.30;82.70;;;;;;5060924;28;20111;-61
2021/09/18 01:51:19;;;;;;;11.82;4.22;;;18.30;82.80;;;;;;5043626;28;20025;-61
2021/09/18 01:53:45;;;;;;;10.57;4.20;;;18.20;82.70;;;;;;5061866;28;20025;-61
2021/09/18 01:56:11;;;;;;;11.15;5.60;;;18.20;82.70;;;;;;5042530;28;20028;-60
2021/09/18 01:58:36;;;;;;;11.25;6.30;;;18.30;82.70;;;;;;5053949;28;20038;-62
2021/09/18 02:01:03;;;;;;;9.65;6.38;;;18.20;82.70;;;;;;5059867;28;20361;-61
2021/09/18 02:03:29;;;;;;;11.07;5.43;;;18.20;82.70;;;;;;5059366;28;20161;-62
2021/09/18 02:05:55;;;;;;;12.50;4.55;;;18.20;82.70;;;;;;5043615;28;20032;-61
2021/09/18 02:08:21;;;;;;;9.95;5.05;;;18.10;82.60;;;;;;5042452;28;20025;-61
2021/09/18 02:10:47;;;;;;;10.70;4.68;;;18.10;82.60;;;;;;5043695;28;20067;-61
2021/09/18 02:13:13;;;;;;;9.80;4.15;;;18.10;82.70;;;;;;5062047;28;20059;-62
2021/09/18 02:15:38;;;;;;;12.65;5.25;;;18.10;82.70;;;;;;5044232;28;20025;-61
2021/09/18 02:18:04;;;;;;;8.10;4.35;;;18.10;82.80;;;;;;5041302;28;20036;-61
2021/09/18 02:20:30;;;;;;;9.30;4.35;;;18.00;82.80;;;;;;5060765;28;20078;-61
2021/09/18 02:22:56;;;;;;;7.90;4.47;;;18.00;82.90;;;;;;5042215;28;20052;-61
2021/09/18 02:25:21;;;;;;;7.55;3.83;;;18.00;82.90;;;;;;5082518;28;20039;-61
2021/09/18 02:27:47;;;;;;;11.90;4.10;;;18.00;83.30;;;;;;5062270;28;20097;-61
2021/09/18 02:30:16;;;;;;;4.63;3.80;;;18.00;83.00;;;;;;5064760;28;20459;-61
2021/09/18 02:32:41;;;;;;;7.65;3.90;;;18.00;83.10;;;;;;5062549;28;20067;-61
2021/09/18 02:35:11;;;;;;;7.55;3.95;;;18.00;83.00;;;;;;5074775;28;20076;-60
2021/09/18 02:37:37;;;;;;;7.25;3.88;;;18.00;83.10;;;;;;5081482;28;20042;-61
2021/09/18 02:40:06;;;;;;;5.22;3.80;;;17.90;83.10;;;;;;5081950;28;20100;-61
2021/09/18 02:42:32;;;;;;;6.63;3.60;;;17.90;83.10;;;;;;5083436;28;20522;-62
2021/09/18 02:44:57;;;;;;;8.18;4.00;;;17.90;83.20;;;;;;5065153;28;20034;-61
2021/09/18 02:47:23;;;;;;;6.50;3.60;;;17.90;83.10;;;;;;5076704;28;20028;-61
2021/09/18 02:49:48;;;;;;;8.38;3.90;;;17.90;83.20;;;;;;5073101;28;20050;-62
2021/09/18 02:52:14;;;;;;;6.50;3.88;;;17.90;83.20;;;;;;5078759;28;20225;-61
2021/09/18 02:54:39;;;;;;;6.72;3.70;;;18.00;83.30;;;;;;5078535;28;20092;-62
2021/09/18 02:57:05;;;;;;;6.90;4.00;;;17.80;83.30;;;;;;5083422;28;20490;-61
2021/09/18 02:59:30;;;;;;;6.15;3.85;;;17.80;83.30;;;;;;5086048;28;20372;-62
2021/09/18 03:01:56;;;;;;;7.03;3.75;;;17.80;83.40;;;;;;5064524;28;20076;-61
2021/09/18 03:04:22;;;;;;;8.73;3.75;;;17.80;83.50;;;;;;5081312;28;20031;-61
2021/09/18 03:06:47;;;;;;;8.05;3.97;;;17.80;83.50;;;;;;5065730;28;20685;-61
2021/09/18 03:09:13;;;;;;;5.13;3.78;;;17.70;83.40;;;;;;5066251;28;20036;-61
2021/09/18 03:11:38;;;;;;;7.38;4.05;;;17.70;83.60;;;;;;5084528;28;20046;-61
2021/09/18 03:14:04;;;;;;;10.48;4.55;;;17.70;83.50;;;;;;5064807;28;20039;-62
2021/09/18 03:16:29;;;;;;;10.80;4.07;;;17.60;83.50;;;;;;5082439;28;20723;-61
2021/09/18 03:18:55;;;;;;;5.32;4.05;;;17.70;83.50;;;;;;5048929;28;20466;-61
2021/09/18 03:21:20;;;;;;;8.93;4.28;;;17.60;83.60;;;;;;5085262;28;20039;-61
2021/09/18 03:23:46;;;;;;;7.82;4.53;;;17.60;83.60;;;;;;5084095;28;20075;-61
2021/09/18 03:26:11;;;;;;;6.65;4.18;;;17.60;83.60;;;;;;5067594;28;20668;-61
2021/09/18 03:28:37;;;;;;;5.90;4.00;;;17.60;83.60;;;;;;5084090;28;20051;-62
2021/09/18 03:31:03;;;;;;;6.07;4.13;;;17.60;83.60;;;;;;5082396;28;20059;-61
2021/09/18 03:33:29;;;;;;;6.68;3.92;;;17.50;83.60;;;;;;5066298;28;20522;-61
2021/09/18 03:35:55;;;;;;;7.38;3.80;;;17.50;83.70;;;;;;5084190;28;20032;-61
2021/09/18 03:38:20;;;;;;;7.18;4.13;;;17.50;83.80;;;;;;5083868;28;20028;-61
2021/09/18 03:40:46;;;;;;;5.45;3.63;;;17.50;83.80;;;;;;5066382;28;20052;-61
2021/09/18 03:43:11;;;;;;;5.70;3.67;;;17.50;83.90;;;;;;5084611;28;20491;-61
2021/09/18 03:45:37;;;;;;;5.97;4.00;;;17.40;83.80;;;;;;5081699;28;20042;-60
2021/09/18 03:48:03;;;;;;;4.60;3.92;;;17.40;83.80;;;;;;5081374;28;20351;-61
2021/09/18 03:50:28;;;;;;;5.93;3.90;;;17.40;83.90;;;;;;5083961;28;20028;-61
2021/09/18 03:52:54;;;;;;;5.72;4.03;;;17.40;83.90;;;;;;5082469;28;20024;-61
2021/09/18 03:55:19;;;;;;;6.93;3.72;;;17.30;83.90;;;;;;5082677;28;20051;-61
2021/09/18 03:57:45;;;;;;;7.13;3.83;;;17.30;84.00;;;;;;5066429;28;20067;-61
2021/09/18 04:00:11;;;;;;;5.93;4.05;;;17.30;84.20;;;;;;5083395;28;21728;-62
2021/09/18 04:02:36;;;;;;;6.35;3.78;;;17.20;84.10;;;;;;5085186;28;20483;-61
2021/09/18 04:05:02;;;;;;;5.68;3.53;;;17.30;84.10;;;;;;5065120;28;20511;-61
2021/09/18 04:07:27;;;;;;;5.88;3.53;;;17.30;84.20;;;;;;5064855;28;20048;-61
2021/09/18 04:09:53;;;;;;;7.78;3.67;;;17.20;84.20;;;;;;5065117;28;20069;-62
2021/09/18 04:12:18;;;;;;;5.22;3.45;;;17.20;84.20;;;;;;5066629;28;20063;-61
2021/09/18 04:14:44;;;;;;;4.80;3.83;;;17.20;84.40;;;;;;5066050;28;20028;-61
2021/09/18 04:17:09;;;;;;;7.35;3.70;;;17.10;84.40;;;;;;5064832;28;20044;-61
2021/09/18 04:19:35;;;;;;;6.10;3.60;;;17.10;84.40;;;;;;5081967;28;20040;-61
2021/09/18 04:22:01;;;;;;;6.32;3.60;;;17.10;84.50;;;;;;5046774;28;20036;-61
2021/09/18 04:24:27;;;;;;;4.00;3.47;;;17.10;84.50;;;;;;5084981;28;20094;-61
2021/09/18 04:26:52;;;;;;;5.43;3.80;;;17.00;84.60;;;;;;5066360;28;20027;-62
2021/09/18 04:29:18;;;;;;;4.50;3.67;;;17.00;84.70;;;;;;5068008;28;20032;-61
2021/09/18 04:31:46;;;;;;;4.63;3.65;;;17.00;84.80;;;;;;5081285;28;20366;-62
2021/09/18 04:34:12;;;;;;;6.63;3.03;;;17.00;84.80;;;;;;5083276;28;20063;-61
2021/09/18 04:36:37;;;;;;;3.40;3.10;;;17.00;84.80;;;;;;5083549;28;20467;-61
2021/09/18 04:39:03;;;;;;;3.58;3.17;;;17.00;84.90;;;;;;5067529;28;20040;-61
2021/09/18 04:41:28;;;;;;;4.40;3.30;;;17.00;84.90;;;;;;5065173;28;20176;-61
2021/09/18 04:43:54;;;;;;;3.97;3.15;;;16.90;84.80;;;;;;5085528;28;20146;-61
2021/09/18 04:46:20;;;;;;;4.20;3.30;;;16.90;84.70;;;;;;5081879;28;20036;-62
2021/09/18 04:48:45;;;;;;;3.72;3.03;;;16.90;84.80;;;;;;5063657;28;20095;-62
2021/09/18 04:51:11;;;;;;;5.80;2.90;;;16.90;84.90;;;;;;5080800;28;20028;-61
2021/09/18 04:53:36;;;;;;;5.80;3.45;;;16.80;85.00;;;;;;5078250;28;21020;-61
2021/09/18 04:56:02;;;;;;;3.60;3.10;;;16.80;85.00;;;;;;5063574;28;20193;-61
2021/09/18 04:58:30;;;;;;;3.88;3.35;;;16.80;85.10;;;;;;5062750;28;20039;-62
2021/09/18 05:00:55;;;;;;;3.95;3.17;;;16.80;85.10;;;;;;5083537;28;20027;-61
2021/09/18 05:03:21;;;;;;;5.57;3.70;;;16.80;85.10;;;;;;5065754;28;20046;-61
2021/09/18 05:05:47;;;;;;;3.42;3.03;;;16.80;85.10;;;;;;5084143;28;20364;-62
2021/09/18 05:08:13;;;;;;;4.55;3.50;;;16.80;85.20;;;;;;5082048;28;20129;-62
2021/09/18 05:10:39;;;;;;;3.83;3.03;;;16.70;85.10;;;;;;5083097;28;20119;-62
2021/09/18 05:13:04;;;;;;;3.78;3.10;;;16.70;85.20;;;;;;5082478;28;20408;-61
2021/09/18 05:15:30;;;;;;;4.45;3.20;;;16.70;85.30;;;;;;5084590;28;20047;-61
2021/09/18 05:17:55;;;;;;;5.03;3.17;;;16.70;85.40;;;;;;5083753;28;20026;-61
2021/09/18 05:20:21;;;;;;;3.80;3.40;;;16.60;85.40;;;;;;5081967;28;20039;-61
2021/09/18 05:22:46;;;;;;;4.18;3.25;;;16.60;85.50;;;;;;5065958;28;20054;-62
2021/09/18 05:25:12;;;;;;;3.00;2.63;;;16.60;85.50;;;;;;5058439;28;20136;-61
2021/09/18 05:27:38;;;;;;;4.15;3.38;;;16.60;85.40;;;;;;5058514;28;20031;-61
2021/09/18 05:30:04;;;;;;;7.15;3.20;;;16.60;85.50;;;;;;5058473;28;20039;-62
2021/09/18 05:32:29;;;;;;;4.18;3.15;;;16.60;85.50;;;;;;5043341;28;20510;-61
2021/09/18 05:34:55;;;;;;;3.20;2.88;;;16.60;85.40;;;;;;5053911;28;20025;-61
2021/09/18 05:37:21;;;;;;;4.07;2.92;;;16.60;85.50;;;;;;5037072;28;20017;-61
2021/09/18 05:39:46;;;;;;;4.63;3.08;;;16.60;85.60;;;;;;5055312;28;20466;-61
2021/09/18 05:42:11;;;;;;;4.50;3.42;;;16.60;85.60;;;;;;5036618;28;20472;-61
2021/09/18 05:44:37;;;;;;;3.22;2.80;;;16.60;85.60;;;;;;5042870;28;20443;-61
2021/09/18 05:47:03;;;;;;;4.00;3.13;;;16.50;85.70;;;;;;5051874;28;20037;-61
2021/09/18 05:49:28;;;;;;;3.40;3.10;;;16.50;85.60;;;;;;5024658;28;20136;-61
2021/09/18 05:51:54;;;;;;;4.72;3.15;;;16.50;85.70;;;;;;5034988;28;20045;-61
2021/09/18 05:54:19;;;;;;;3.78;3.15;;;16.50;85.70;;;;;;5056513;28;20055;-61
2021/09/18 05:56:45;;;;;;;3.47;3.00;;;16.50;85.60;;;;;;5042042;28;20060;-61
2021/09/18 05:59:10;;;;;;;3.10;2.80;;;16.50;85.60;;;;;;5055203;28;20587;-61
2021/09/18 06:01:36;;;;;;;4.85;3.20;;;16.50;85.60;;;;;;5035759;28;20035;-61
2021/09/18 06:04:01;;;;;;;4.18;3.17;;;16.50;85.70;;;;;;5052722;28;20029;-61
2021/09/18 06:06:27;;;;;;;3.40;3.10;;;16.50;85.70;;;;;;5033693;28;20128;-61
2021/09/18 06:08:52;;;;;;;3.40;3.10;;;16.40;85.80;;;;;;5050572;28;20025;-61
2021/09/18 06:11:18;;;;;;;5.43;3.70;;;16.40;85.90;;;;;;5056663;28;20541;-61
2021/09/18 06:13:43;;;;;;;5.25;3.30;;;16.40;85.80;;;;;;5052330;28;20060;-62
2021/09/18 06:16:09;;;;;;;3.75;2.80;;;16.40;85.70;;;;;;5053342;28;20025;-61
2021/09/18 06:18:34;;;;;;;3.47;3.17;;;16.40;85.80;;;;;;5058134;28;20059;-61
2021/09/18 06:21:03;;;;;;;4.53;2.83;;;16.40;85.90;;;;;;5054540;28;20024;-61
2021/09/18 06:23:29;;;;;;;4.35;3.08;;;16.40;85.90;;;;;;5037870;28;20041;-62
2021/09/18 06:25:54;;;;;;;3.28;2.97;;;16.40;85.90;;;;;;5080792;28;20391;-61
2021/09/18 06:28:20;;;;;;;2.90;2.70;;;16.40;85.90;;;;;;5080336;28;20031;-61
2021/09/18 06:30:46;;;;;;;6.18;3.05;;;16.40;85.90;;;;;;5081567;28;20035;-61
2021/09/18 06:33:11;;;;;;;3.75;3.30;;;16.40;85.90;;;;;;5062824;28;20154;-61
2021/09/18 06:35:37;;;;;;;4.13;3.25;;;16.40;86.00;;;;;;5082281;28;20024;-61
2021/09/18 06:38:02;;;;;;;5.38;3.13;;;16.40;86.00;;;;;;5062106;28;20494;-61
2021/09/18 06:40:28;;;;;;;3.17;2.88;;;16.40;86.10;;;;;;5082207;28;20035;-61
2021/09/18 06:42:54;;;;;;;3.40;3.10;;;16.30;86.10;;;;;;5047992;28;20028;-61
2021/09/18 06:45:19;;;;;;;5.18;3.35;;;16.40;86.20;;;;;;5079682;28;20032;-61
2021/09/18 06:47:45;;;;;;;3.38;3.08;;;16.40;86.80;;;;;;5081229;28;20035;-61
2021/09/18 06:50:10;;;;;;;3.65;3.35;;;16.40;86.20;;;;;;5079028;28;20405;-62
2021/09/18 06:52:36;;;;;;;3.63;3.33;;;16.30;86.10;;;;;;5062359;28;20021;-61
2021/09/18 06:55:02;;;;;;;4.20;3.13;;;16.40;86.30;;;;;;5061910;28;20044;-61
2021/09/18 06:57:27;;;;;;;3.55;3.22;;;16.40;86.30;;;;;;5081370;28;20094;-61
2021/09/18 06:59:53;;;;;;;3.60;3.30;;;16.30;86.20;;;;;;5081975;28;20039;-62
2021/09/18 07:02:18;;;;;;;4.80;3.22;;;16.40;86.20;;;;;;5062592;28;20071;-61
2021/09/18 07:04:44;;;;;;;5.15;3.33;;;16.40;86.30;;;;;;5081330;28;20154;-61
2021/09/18 07:07:09;;;;;;;3.90;3.50;;;16.30;86.30;;;;;;5079363;28;20035;-61
2021/09/18 07:09:35;;;;;;;3.75;3.45;;;16.40;86.40;;;;;;5054662;28;20043;-61
2021/09/18 07:12:01;;;;;;;5.13;3.58;;;16.30;86.50;;;;;;5061363;28;20644;-61
2021/09/18 07:14:26;;;;;;;4.20;3.70;;;16.40;86.50;;;;;;5075130;28;20160;-61
2021/09/18 07:16:52;;;;;;;5.63;3.90;;;16.40;86.70;;;;;;5080870;28;20103;-62
2021/09/18 07:19:17;;;;;;;4.32;3.70;;;16.40;86.70;;;;;;5080125;28;20543;-61
2021/09/18 07:21:43;;;;;;;4.72;4.10;;;16.40;86.70;;;;;;5073836;28;21264;-61
2021/09/18 07:24:08;;;;;;;6.82;4.22;;;16.40;86.80;;;;;;5066439;28;20907;-61
2021/09/18 07:26:35;;;;;;;5.75;3.83;;;16.30;87.00;;;;;;5059849;28;20042;-61
2021/09/18 07:29:01;;;;;;;4.35;3.95;;;16.30;87.20;;;;;;5046715;28;20887;-61
2021/09/18 07:31:27;;;;;;;6.15;3.92;;;16.40;87.20;;;;;;5044660;28;20035;-62
2021/09/18 07:33:53;;;;;;;4.70;4.30;;;16.40;87.40;;;;;;5061210;28;20016;-61
2021/09/18 07:36:18;;;;;;;4.50;4.10;;;16.40;87.70;;;;;;5078352;28;20599;-61
2021/09/18 07:38:44;;;;;;;6.70;4.57;;;16.40;87.80;;;;;;5078072;28;20451;-61
2021/09/18 07:41:09;;;;;;;4.80;4.30;;;16.30;87.80;;;;;;5078697;28;20146;-62
2021/09/18 07:43:35;;;;;;;12.27;4.68;;;16.30;87.80;;;;;;5082549;28;20143;-62
2021/09/18 07:46:04;;;;;;;7.32;4.38;;;16.40;87.90;;;;;;5074348;28;20028;-61
2021/09/18 07:48:29;;;;;;;7.43;4.50;;;16.40;88.00;;;;;;5061506;28;20147;-62
2021/09/18 07:50:56;;;;;;;9.25;4.82;;;16.40;88.20;;;;;;5081738;28;20109;-62
2021/09/18 07:53:21;;;;;;;5.55;4.57;;;16.40;88.30;;;;;;5065615;28;20032;-62
2021/09/18 07:55:47;;;;;;;6.53;4.55;;;16.40;88.50;;;;;;5063720;28;20028;-61
2021/09/18 07:58:12;;;;;;;5.97;4.50;;;16.40;88.60;;;;;;5081241;28;20055;-62
2021/09/18 08:00:38;;;;;;;7.15;4.57;;;16.40;88.80;;;;;;5062748;28;20040;-61
2021/09/18 08:03:04;;;;;;;7.63;4.95;;;16.40;88.90;;;;;;5045568;28;20040;-61
2021/09/18 08:05:29;;;;;;;7.53;4.93;;;16.40;88.90;;;;;;5062746;28;20027;-61
2021/09/18 08:07:55;;;;;;;29.98;7.10;;;16.40;89.10;;;;;;5047656;28;20031;-61
2021/09/18 08:10:20;;;;;;;44.53;7.55;;;16.50;89.20;;;;;;5079831;28;20032;-61
2021/09/18 08:12:48;;;;;;;27.20;6.80;;;16.50;89.30;;;;;;5081470;28;20036;-61
2021/09/18 08:15:15;;;;;;;65.90;12.00;;;16.50;89.40;;;;;;5059445;28;20032;-61
2021/09/18 08:17:41;;;;;;;42.72;8.65;;;16.50;90.00;;;;;;5063079;28;20021;-61
2021/09/18 08:20:07;;;;;;;42.95;8.25;;;16.50;89.50;;;;;;5045833;28;20035;-60
2021/09/18 08:22:33;;;;;;;55.78;8.10;;;16.50;89.60;;;;;;5063560;28;20430;-61
2021/09/18 08:24:58;;;;;;;35.15;8.15;;;16.50;89.50;;;;;;5083187;28;20040;-61
2021/09/18 08:27:24;;;;;;;35.50;7.72;;;16.50;89.60;;;;;;5082004;28;20063;-61
2021/09/18 08:29:49;;;;;;;31.00;7.07;;;16.60;89.50;;;;;;5080230;28;20035;-62
2021/09/18 08:32:15;;;;;;;30.88;7.60;;;16.60;89.40;;;;;;5079628;28;20039;-61
2021/09/18 08:34:40;;;;;;;41.67;7.85;;;16.60;89.30;;;;;;5081861;28;20063;-61
2021/09/18 08:37:06;;;;;;;36.15;7.28;;;16.70;89.50;;;;;;5064326;28;20182;-61
2021/09/18 08:39:35;;;;;;;47.17;8.98;;;16.70;89.50;;;;;;5062380;28;20028;-61
2021/09/18 08:42:03;;;;;;;57.13;9.55;;;16.70;89.50;;;;;;5062888;28;20040;-61
2021/09/18 08:44:30;;;;;;;54.08;9.48;;;16.70;89.90;;;;;;5081777;28;20067;-61
2021/09/18 08:46:55;;;;;;;61.95;10.25;;;16.70;90.00;;;;;;5062005;28;20023;-61
2021/09/18 08:49:21;;;;;;;103.45;13.13;;;16.70;89.70;;;;;;5065119;28;20024;-61
2021/09/18 08:51:46;;;;;;;53.92;10.80;;;16.70;89.70;;;;;;5062874;28;20046;-60
2021/09/18 08:54:12;;;;;;;76.78;14.23;;;16.80;90.10;;;;;;5077295;28;20055;-61
2021/09/18 08:56:38;;;;;;;97.75;13.00;;;16.80;90.20;;;;;;5044617;28;20048;-61
2021/09/18 08:59:04;;;;;;;75.00;12.35;;;16.80;90.30;;;;;;5080163;28;20099;-61
2021/09/18 09:01:31;;;;;;;77.07;12.10;;;16.80;90.20;;;;;;5061320;28;20051;-61
2021/09/18 09:04:01;;;;;;;108.97;15.27;;;16.80;90.10;;;;;;5058477;28;20062;-60
2021/09/18 09:06:40;;;;;;;104.88;14.18;;;16.90;90.30;;;;;;5077509;28;20338;-61
2021/09/18 09:09:05;;;;;;;116.05;15.73;;;16.90;90.30;;;;;;5062413;28;20159;-61
2021/09/18 09:11:31;;;;;;;129.30;16.00;;;16.90;90.40;;;;;;5060396;28;20704;-61
2021/09/18 09:14:01;;;;;;;88.68;14.30;;;17.00;90.40;;;;;;5046795;28;20518;-61
2021/09/18 09:16:28;;;;;;;139.73;16.52;;;17.00;90.40;;;;;;5078901;28;20036;-61
2021/09/18 09:18:53;;;;;;;117.30;17.67;;;17.00;90.50;;;;;;5062239;28;20043;-61
2021/09/18 09:21:24;;;;;;;132.45;16.75;;;17.10;90.50;;;;;;5076366;28;20682;-60
2021/09/18 09:24:12;;;;;;;131.93;16.83;;;17.10;90.50;;;;;;5061196;28;20506;-61
2021/09/18 09:26:57;;;;;;;93.95;16.17;;;17.10;90.50;;;;;;5077450;28;20421;-61
2021/09/18 09:29:41;;;;;;;103.65;16.02;;;17.10;90.30;;;;;;5064558;28;20120;-61
2021/09/18 09:32:30;;;;;;;115.90;15.68;;;17.20;90.50;;;;;;5060688;28;20036;-61
2021/09/18 09:34:56;;;;;;;109.70;16.40;;;17.20;90.40;;;;;;5079158;28;20036;-61
2021/09/18 09:37:22;;;;;;;106.72;16.98;;;17.20;90.40;;;;;;5060290;28;20042;-61
2021/09/18 09:39:52;;;;;;;156.90;19.48;;;17.20;90.40;;;;;;5060331;28;20036;-61
2021/09/18 09:42:30;;;;;;;130.73;17.65;;;17.20;90.30;;;;;;5062726;28;20153;-61
2021/09/18 09:45:18;;;;;;;137.00;18.33;;;17.30;90.30;;;;;;5056790;28;20146;-61
2021/09/18 09:47:44;;;;;;;124.60;16.45;;;17.30;90.30;;;;;;5075970;28;20044;-61
2021/09/18 09:50:11;;;;;;;165.40;18.70;;;17.30;90.30;;;;;;5062106;28;20044;-61
2021/09/18 09:52:37;;;;;;;109.15;17.08;;;17.40;90.30;;;;;;5080326;28;20104;-61
2021/09/18 09:55:07;;;;;;;143.43;17.58;;;17.40;90.30;;;;;;5061253;28;20064;-61
2021/09/18 09:57:32;;;;;;;157.23;17.52;;;17.40;90.30;;;;;;5079895;28;20024;-61
2021/09/18 09:59:59;;;;;;;127.22;17.25;;;17.50;90.20;;;;;;5078004;28;20048;-61
2021/09/18 10:02:24;;;;;;;167.05;20.92;;;17.50;90.20;;;;;;5061531;28;20525;-61
2021/09/18 10:04:50;;;;;;;150.77;20.23;;;17.60;90.00;;;;;;5044277;28;20062;-61
2021/09/18 10:07:16;;;;;;;140.20;19.80;;;17.60;90.00;;;;;;5081276;28;20103;-61
2021/09/18 10:09:41;;;;;;;154.65;19.42;;;17.70;89.60;;;;;;5062700;28;20475;-61
2021/09/18 10:12:07;;;;;;;142.50;18.27;;;17.70;89.60;;;;;;5060825;28;20048;-60
2021/09/18 10:14:33;;;;;;;151.05;18.63;;;17.70;89.50;;;;;;5079665;28;20067;-61
2021/09/18 10:16:59;;;;;;;161.35;19.15;;;17.80;89.50;;;;;;5058600;28;20691;-61
2021/09/18 10:25:19;;;;;;;169.07;20.83;;;17.90;89.00;;;;;;5049935;28;20672;-61
2021/09/18 10:27:59;;;;;;;147.75;19.10;;;17.90;89.40;;;;;;5076455;28;20078;-60
2021/09/18 10:30:32;;;;;;;198.13;22.05;;;17.90;88.70;;;;;;5069554;28;20548;-61
2021/09/18 10:32:58;;;;;;;118.43;17.75;;;18.00;88.50;;;;;;5058366;28;20038;-60
2021/09/18 10:35:24;;;;;;;149.50;20.05;;;18.00;88.20;;;;;;5061047;28;20364;-61
2021/09/18 10:37:49;;;;;;;159.95;17.63;;;18.10;87.80;;;;;;5042702;28;20028;-61
2021/09/18 10:40:16;;;;;;;101.93;14.82;;;18.10;87.40;;;;;;5058620;28;20232;-61
2021/09/18 10:42:43;;;;;;;136.82;16.60;;;18.10;87.20;;;;;;5080514;28;20062;-60
2021/09/18 10:45:10;;;;;;;104.10;12.77;;;18.20;87.00;;;;;;5060649;28;20020;-61
2021/09/18 10:47:37;;;;;;;94.30;13.32;;;18.20;86.30;;;;;;5058853;28;20028;-61
2021/09/18 10:50:27;;;;;;;92.18;14.25;;;18.20;85.60;;;;;;5079071;28;20028;-61
2021/09/18 10:53:00;;;;;;;95.45;12.68;;;18.30;85.20;;;;;;5060072;28;20070;-61
2021/09/18 10:55:26;;;;;;;89.05;10.43;;;18.30;85.00;;;;;;5077710;28;20044;-62
2021/09/18 10:57:52;;;;;;;107.38;12.45;;;18.30;84.60;;;;;;5059345;28;20032;-62
2021/09/18 11:00:20;;;;;;;61.85;9.45;;;18.40;84.30;;;;;;5077588;28;20055;-62
2021/09/18 11:02:53;;;;;;;66.68;9.50;;;18.40;83.60;;;;;;5061847;28;20051;-63
2021/09/18 11:05:21;;;;;;;68.75;9.93;;;18.50;83.20;;;;;;5060186;28;20020;-62
2021/09/18 11:07:50;;;;;;;75.38;11.05;;;18.50;83.40;;;;;;5074264;28;20563;-62
2021/09/18 11:10:22;;;;;;;56.53;7.95;;;18.50;82.70;;;;;;5075293;28;20506;-62
2021/09/18 11:13:09;;;;;;;75.15;8.90;;;18.60;82.40;;;;;;5078425;28;20028;-62
2021/09/18 11:15:55;;;;;;;49.45;8.00;;;18.70;82.20;;;;;;5077375;28;20111;-62
2021/09/18 11:18:43;;;;;;;50.75;7.93;;;18.70;81.90;;;;;;5062798;28;20020;-63
2021/09/18 11:21:23;;;;;;;35.47;7.53;;;18.70;81.90;;;;;;5047226;28;20043;-60
2021/09/18 11:24:21;;;;;;;53.33;7.20;;;18.80;81.80;;;;;;5060571;28;20040;-62
2021/09/18 11:26:54;;;;;;;52.90;8.65;;;18.80;81.70;;;;;;5070655;28;20402;-62
2021/09/18 11:29:30;;;;;;;55.83;8.80;;;18.90;81.40;;;;;;5079942;28;20035;-62
2021/09/18 11:32:10;;;;;;;70.85;8.57;;;18.90;81.20;;;;;;5054203;28;21475;-63
2021/09/18 11:34:39;;;;;;;53.70;8.10;;;19.00;81.10;;;;;;5058916;28;20095;-62
2021/09/18 11:37:07;;;;;;;52.70;8.65;;;19.00;80.80;;;;;;5060405;28;20016;-62
2021/09/18 11:39:53;;;;;;;52.40;8.00;;;19.10;80.80;;;;;;5064083;28;20068;-62
2021/09/18 11:42:22;;;;;;;65.25;8.50;;;19.20;80.70;;;;;;5081022;28;20032;-62
2021/09/18 11:44:49;;;;;;;68.40;9.90;;;19.20;80.40;;;;;;5046838;28;20067;-62
2021/09/18 11:47:23;;;;;;;84.90;9.68;;;19.30;80.30;;;;;;5083622;28;20047;-62
2021/09/18 11:49:49;;;;;;;69.90;8.00;;;19.30;80.30;;;;;;5081208;28;20136;-62
2021/09/18 11:52:14;;;;;;;83.38;8.73;;;19.40;79.70;;;;;;5084155;28;20027;-62
2021/09/18 11:54:40;;;;;;;69.57;8.85;;;19.40;79.50;;;;;;5082609;28;20936;-63
2021/09/18 11:57:16;;;;;;;85.45;9.60;;;19.50;79.60;;;;;;5082954;28;20574;-63
2021/09/18 11:59:42;;;;;;;70.03;9.48;;;19.50;79.70;;;;;;5046524;28;20108;-63
2021/09/18 12:02:07;;;;;;;83.70;10.52;;;19.60;79.60;;;;;;5084817;28;20521;-62
2021/09/18 12:04:49;;;;;;;71.55;9.35;;;19.60;79.40;;;;;;5083436;28;20503;-63
2021/09/18 12:07:15;;;;;;;87.50;10.95;;;19.60;78.90;;;;;;5083441;28;20156;-62
2021/09/18 12:09:40;;;;;;;107.45;14.35;;;19.70;78.90;;;;;;5078177;28;20068;-62
2021/09/18 12:12:06;;;;;;;90.47;11.07;;;19.80;78.60;;;;;;5082928;28;20705;-62
2021/09/18 12:14:33;;;;;;;97.30;10.68;;;19.80;78.40;;;;;;5061411;28;20020;-63
2021/09/18 12:17:13;;;;;;;63.38;9.43;;;19.90;78.30;;;;;;5082972;28;20090;-62
2021/09/18 12:19:39;;;;;;;73.30;9.45;;;20.00;77.60;;;;;;5082918;28;20024;-63
2021/09/18 12:22:06;;;;;;;88.38;10.75;;;20.00;77.60;;;;;;5063848;28;20067;-62
2021/09/18 12:24:32;;;;;;;79.00;9.32;;;20.10;77.50;;;;;;5060114;28;20032;-62
2021/09/18 12:26:57;;;;;;;54.70;8.52;;;20.10;77.20;;;;;;5060989;28;20081;-62
2021/09/18 12:29:24;;;;;;;74.32;8.85;;;20.20;77.10;;;;;;5081467;28;20039;-63
2021/09/18 12:31:50;;;;;;;78.30;9.70;;;20.20;77.10;;;;;;5082260;28;20625;-62
2021/09/18 12:34:17;;;;;;;72.05;8.70;;;20.30;76.70;;;;;;5046295;28;20119;-62
2021/09/18 12:36:42;;;;;;;93.25;10.68;;;20.30;76.70;;;;;;5062188;28;20051;-62
2021/09/18 12:39:08;;;;;;;103.43;11.00;;;20.40;76.80;;;;;;5080290;28;20122;-62
2021/09/18 12:41:35;;;;;;;106.60;11.15;;;20.40;76.70;;;;;;5060344;28;20043;-63
2021/09/18 12:44:11;;;;;;;108.07;11.82;;;20.50;76.80;;;;;;5081570;28;20032;-62